sensor_id;sensor_type;location;lat;lon;timestamp;pressure;altitude;pressure_sealevel;temperature;humidity
37648;BME280;23490;53.656;10.076;2023-08-06T00:02:04;97954.09;;;-145.95;91.00
37648;BME280;23490;53.656;10.076;2023-08-06T00:04:29;98001.56;;;-145.95;91.63
37648;BME280;23490;53.656;10.076;2023-08-06T00:06:54;98100.66;;;-145.95;92.53
37648;BME280;23490;53.656;10.076;2023-08-06T00:09:20;98030.47;;;-145.95;94.78
37648;BME280;23490;53.656;10.076;2023-08-06T00:11:45;98022.22;;;-145.95;93.98
37648;BME280;23490;53.656;10.076;2023-08-06T00:14:12;98053.16;;;-145.95;94.03
37648;BME280;23490;53.656;10.076;2023-08-06T00:16:37;98119.22;;;-145.95;99.11
37648;BME280;23490;53.656;10.076;2023-08-06T00:19:03;98080.00;;;-145.95;100.00
37648;BME280;23490;53.656;10.076;2023-08-06T00:21:28;98084.13;;;-145.95;100.00
37648;BME280;23490;53.656;10.076;2023-08-06T00:23:53;98113.03;;;-145.95;100.00
37648;BME280;23490;53.656;10.076;2023-08-06T00:26:19;98071.75;;;-145.95;100.00
37648;BME280;23490;53.656;10.076;2023-08-06T00:28:44;98082.06;;;-145.95;100.00
37648;BME280;23490;53.656;10.076;2023-08-06T00:31:10;98104.78;;;-145.95;100.00
37648;BME280;23490;53.656;10.076;2023-08-06T00:33:35;98121.28;;;-145.95;100.00
37648;BME280;23490;53.656;10.076;2023-08-06T00:36:00;98174.97;;;-145.95;100.00
37648;BME280;23490;53.656;10.076;2023-08-06T00:38:25;98185.28;;;-145.95;100.00
37648;BME280;23490;53.656;10.076;2023-08-06T00:40:51;98199.75;;;-145.95;100.00
37648;BME280;23490;53.656;10.076;2023-08-06T00:43:16;98218.31;;;-145.95;100.00
37648;BME280;23490;53.656;10.076;2023-08-06T00:45:41;98208.00;;;-145.95;100.00
37648;BME280;23490;53.656;10.076;2023-08-06T00:48:08;98199.75;;;-145.95;100.00
37648;BME280;23490;53.656;10.076;2023-08-06T00:50:33;98187.34;;;-145.95;100.00
37648;BME280;23490;53.656;10.076;2023-08-06T00:52:59;98216.25;;;-145.95;100.00
37648;BME280;23490;53.656;10.076;2023-08-06T00:55:25;98218.31;;;-145.95;100.00
37648;BME280;23490;53.656;10.076;2023-08-06T00:57:50;98224.53;;;-145.95;100.00
37648;BME280;23490;53.656;10.076;2023-08-06T01:00:18;98224.53;;;-145.95;100.00
37648;BME280;23490;53.656;10.076;2023-08-06T01:02:44;98208.00;;;-145.95;100.00
37648;BME280;23490;53.656;10.076;2023-08-06T01:05:09;98166.72;;;-145.95;100.00
37648;BME280;23490;53.656;10.076;2023-08-06T01:07:46;98232.78;;;-145.95;100.00
37648;BME280;23490;53.656;10.076;2023-08-06T01:13:01;98199.75;;;-145.95;100.00
37648;BME280;23490;53.656;10.076;2023-08-06T01:15:36;98224.53;;;-145.95;100.00
37648;BME280;23490;53.656;10.076;2023-08-06T01:18:04;98267.88;;;-145.95;100.00
37648;BME280;23490;53.656;10.076;2023-08-06T01:20:30;98170.84;;;-145.95;100.00
37648;BME280;23490;53.656;10.076;2023-08-06T01:22:56;98158.47;;;-145.95;100.00
37648;BME280;23490;53.656;10.076;2023-08-06T01:25:29;98162.59;;;-145.95;100.00
37648;BME280;23490;53.656;10.076;2023-08-06T01:27:57;98187.34;;;-145.95;100.00
37648;BME280;23490;53.656;10.076;2023-08-06T01:30:28;98232.78;;;-145.95;100.00
37648;BME280;23490;53.656;10.076;2023-08-06T01:32:59;98253.44;;;-145.95;100.00
37648;BME280;23490;53.656;10.076;2023-08-06T01:35:26;98261.69;;;-145.95;100.00
37648;BME280;23490;53.656;10.076;2023-08-06T01:37:52;98249.28;;;-145.95;100.00
37648;BME280;23490;53.656;10.076;2023-08-06T01:40:18;98224.53;;;-145.95;100.00
37648;BME280;23490;53.656;10.076;2023-08-06T01:42:43;98253.44;;;-145.95;100.00
37648;BME280;23490;53.656;10.076;2023-08-06T01:45:09;98208.00;;;-145.95;100.00
37648;BME280;23490;53.656;10.076;2023-08-06T01:47:35;98210.06;;;-145.95;100.00
37648;BME280;23490;53.656;10.076;2023-08-06T01:50:00;98278.19;;;-145.95;100.00
37648;BME280;23490;53.656;10.076;2023-08-06T01:52:26;98232.78;;;-145.95;100.00
37648;BME280;23490;53.656;10.076;2023-08-06T01:54:51;98203.88;;;-145.95;100.00
37648;BME280;23490;53.656;10.076;2023-08-06T01:57:17;98218.31;;;-145.95;100.00
37648;BME280;23490;53.656;10.076;2023-08-06T01:59:43;98249.28;;;-145.95;100.00
37648;BME280;23490;53.656;10.076;2023-08-06T02:02:08;98276.13;;;-145.95;100.00
37648;BME280;23490;53.656;10.076;2023-08-06T02:04:33;98203.88;;;-145.95;100.00
37648;BME280;23490;53.656;10.076;2023-08-06T02:06:59;98212.13;;;-145.95;100.00
37648;BME280;23490;53.656;10.076;2023-08-06T02:09:24;98245.16;;;-145.95;100.00
37648;BME280;23490;53.656;10.076;2023-08-06T02:11:49;98216.25;;;-145.95;100.00
37648;BME280;23490;53.656;10.076;2023-08-06T02:14:15;98241.03;;;-145.95;100.00
37648;BME280;23490;53.656;10.076;2023-08-06T02:16:40;98257.56;;;-145.95;100.00
37648;BME280;23490;53.656;10.076;2023-08-06T02:19:05;98253.44;;;-145.95;100.00
37648;BME280;23490;53.656;10.076;2023-08-06T02:21:31;98286.47;;;-145.95;100.00
37648;BME280;23490;53.656;10.076;2023-08-06T02:23:56;98241.03;;;-145.95;100.00
37648;BME280;23490;53.656;10.076;2023-08-06T02:26:21;98331.88;;;-145.95;100.00
37648;BME280;23490;53.656;10.076;2023-08-06T02:28:47;98276.13;;;-145.95;100.00
37648;BME280;23490;53.656;10.076;2023-08-06T02:31:12;98278.19;;;-145.95;100.00
37648;BME280;23490;53.656;10.076;2023-08-06T02:33:37;98282.31;;;-145.95;100.00
37648;BME280;23490;53.656;10.076;2023-08-06T02:36:03;98290.59;;;-145.95;100.00
37648;BME280;23490;53.656;10.076;2023-08-06T02:38:30;98311.22;;;-145.95;100.00
37648;BME280;23490;53.656;10.076;2023-08-06T02:40:55;98269.94;;;-145.95;100.00
37648;BME280;23490;53.656;10.076;2023-08-06T02:43:21;98290.59;;;-145.95;100.00
37648;BME280;23490;53.656;10.076;2023-08-06T02:45:46;98286.47;;;-145.95;100.00
37648;BME280;23490;53.656;10.076;2023-08-06T02:48:11;98274.06;;;-145.95;100.00
37648;BME280;23490;53.656;10.076;2023-08-06T02:50:40;98265.81;;;-145.95;100.00
37648;BME280;23490;53.656;10.076;2023-08-06T02:53:07;98261.69;;;-145.95;100.00
37648;BME280;23490;53.656;10.076;2023-08-06T02:55:32;98315.38;;;-145.95;100.00
37648;BME280;23490;53.656;10.076;2023-08-06T02:57:59;98267.88;;;-145.95;100.00
37648;BME280;23490;53.656;10.076;2023-08-06T03:00:25;98319.50;;;-145.95;100.00
37648;BME280;23490;53.656;10.076;2023-08-06T03:02:50;98261.69;;;-145.95;100.00
37648;BME280;23490;53.656;10.076;2023-08-06T03:05:16;98313.28;;;-145.95;100.00
37648;BME280;23490;53.656;10.076;2023-08-06T03:07:41;98290.59;;;-145.95;100.00
37648;BME280;23490;53.656;10.076;2023-08-06T03:10:06;98276.13;;;-145.95;100.00
37648;BME280;23490;53.656;10.076;2023-08-06T03:12:32;98389.69;;;-145.95;100.00
37648;BME280;23490;53.656;10.076;2023-08-06T03:14:57;98331.88;;;-145.95;100.00
37648;BME280;23490;53.656;10.076;2023-08-06T03:17:22;98269.94;;;-145.95;100.00
37648;BME280;23490;53.656;10.076;2023-08-06T03:19:47;98307.09;;;-145.95;100.00
37648;BME280;23490;53.656;10.076;2023-08-06T03:22:13;98323.63;;;-145.95;100.00
37648;BME280;23490;53.656;10.076;2023-08-06T03:24:38;98269.94;;;-145.95;100.00
37648;BME280;23490;53.656;10.076;2023-08-06T03:27:04;98284.38;;;-145.95;100.00
37648;BME280;23490;53.656;10.076;2023-08-06T03:29:29;98319.50;;;-145.95;100.00
37648;BME280;23490;53.656;10.076;2023-08-06T03:31:54;98331.88;;;-145.95;100.00
37648;BME280;23490;53.656;10.076;2023-08-06T03:34:19;98385.56;;;-145.95;100.00
37648;BME280;23490;53.656;10.076;2023-08-06T03:36:45;98338.06;;;-145.95;100.00
37648;BME280;23490;53.656;10.076;2023-08-06T03:39:10;98414.47;;;-145.95;100.00
37648;BME280;23490;53.656;10.076;2023-08-06T03:41:35;98327.75;;;-145.95;100.00
37648;BME280;23490;53.656;10.076;2023-08-06T03:44:01;98333.94;;;-145.95;100.00
37648;BME280;23490;53.656;10.076;2023-08-06T03:46:28;98313.28;;;-145.95;100.00
37648;BME280;23490;53.656;10.076;2023-08-06T03:48:54;98331.88;;;-145.95;100.00
37648;BME280;23490;53.656;10.076;2023-08-06T03:51:19;98354.59;;;-145.95;100.00
37648;BME280;23490;53.656;10.076;2023-08-06T03:53:44;98360.78;;;-145.95;100.00
37648;BME280;23490;53.656;10.076;2023-08-06T03:56:10;98331.88;;;-145.95;100.00
37648;BME280;23490;53.656;10.076;2023-08-06T03:58:35;98352.53;;;-145.95;100.00
37648;BME280;23490;53.656;10.076;2023-08-06T04:01:01;98323.63;;;-145.95;100.00
37648;BME280;23490;53.656;10.076;2023-08-06T04:03:27;98369.03;;;-145.95;100.00
37648;BME280;23490;53.656;10.076;2023-08-06T04:05:53;98315.38;;;-145.95;100.00
37648;BME280;23490;53.656;10.076;2023-08-06T04:08:19;98333.94;;;-145.95;100.00
37648;BME280;23490;53.656;10.076;2023-08-06T04:10:44;98340.13;;;-145.95;100.00
37648;BME280;23490;53.656;10.076;2023-08-06T04:13:10;98294.72;;;-145.95;100.00
37648;BME280;23490;53.656;10.076;2023-08-06T04:15:35;98356.66;;;-145.95;100.00
37648;BME280;23490;53.656;10.076;2023-08-06T04:18:00;98331.88;;;-145.95;100.00
37648;BME280;23490;53.656;10.076;2023-08-06T04:20:25;98360.78;;;-145.95;100.00
37648;BME280;23490;53.656;10.076;2023-08-06T04:22:51;98364.91;;;-145.95;100.00
37648;BME280;23490;53.656;10.076;2023-08-06T04:25:16;98336.00;;;-145.95;100.00
37648;BME280;23490;53.656;10.076;2023-08-06T04:27:49;98307.09;;;-145.95;100.00
37648;BME280;23490;53.656;10.076;2023-08-06T04:30:15;98364.91;;;-145.95;100.00
37648;BME280;23490;53.656;10.076;2023-08-06T04:32:40;98319.50;;;-145.95;100.00
37648;BME280;23490;53.656;10.076;2023-08-06T04:35:06;98290.59;;;-145.95;100.00
37648;BME280;23490;53.656;10.076;2023-08-06T04:37:31;98315.38;;;-145.95;100.00
37648;BME280;23490;53.656;10.076;2023-08-06T04:39:56;98315.38;;;-145.95;100.00
37648;BME280;23490;53.656;10.076;2023-08-06T04:42:22;98344.25;;;-145.95;100.00
37648;BME280;23490;53.656;10.076;2023-08-06T04:44:47;98356.66;;;-145.95;100.00
37648;BME280;23490;53.656;10.076;2023-08-06T04:47:12;98364.91;;;-145.95;100.00
37648;BME280;23490;53.656;10.076;2023-08-06T04:49:38;98377.28;;;-145.95;100.00
37648;BME280;23490;53.656;10.076;2023-08-06T04:52:03;98336.00;;;-145.95;100.00
37648;BME280;23490;53.656;10.076;2023-08-06T04:54:29;98307.09;;;-145.95;100.00
37648;BME280;23490;53.656;10.076;2023-08-06T04:56:54;98315.38;;;-145.95;100.00
37648;BME280;23490;53.656;10.076;2023-08-06T04:59:19;98397.94;;;-145.95;100.00
37648;BME280;23490;53.656;10.076;2023-08-06T05:01:45;98331.88;;;-145.95;100.00
37648;BME280;23490;53.656;10.076;2023-08-06T05:04:10;98350.47;;;-145.95;100.00
37648;BME280;23490;53.656;10.076;2023-08-06T05:06:35;98389.69;;;-145.95;100.00
37648;BME280;23490;53.656;10.076;2023-08-06T05:09:03;98298.84;;;-145.95;100.00
37648;BME280;23490;53.656;10.076;2023-08-06T05:11:28;98350.47;;;-145.95;100.00
37648;BME280;23490;53.656;10.076;2023-08-06T05:13:54;98344.25;;;-145.95;100.00
37648;BME280;23490;53.656;10.076;2023-08-06T05:16:19;98319.50;;;-145.95;100.00
37648;BME280;23490;53.656;10.076;2023-08-06T05:18:44;98348.38;;;-145.95;100.00
37648;BME280;23490;53.656;10.076;2023-08-06T05:21:11;98358.72;;;-145.95;100.00
37648;BME280;23490;53.656;10.076;2023-08-06T05:23:36;98439.22;;;-145.95;100.00
37648;BME280;23490;53.656;10.076;2023-08-06T05:26:01;98408.28;;;-145.95;100.00
37648;BME280;23490;53.656;10.076;2023-08-06T05:28:27;98400.00;;;-145.95;100.00
37648;BME280;23490;53.656;10.076;2023-08-06T05:30:52;98404.13;;;-145.95;100.00
37648;BME280;23490;53.656;10.076;2023-08-06T05:33:18;98397.94;;;-145.95;100.00
37648;BME280;23490;53.656;10.076;2023-08-06T05:35:43;98350.47;;;-145.95;100.00
37648;BME280;23490;53.656;10.076;2023-08-06T05:38:08;98371.09;;;-145.95;100.00
37648;BME280;23490;53.656;10.076;2023-08-06T05:40:34;98302.97;;;-145.95;100.00
37648;BME280;23490;53.656;10.076;2023-08-06T05:42:59;98340.13;;;-145.95;100.00
37648;BME280;23490;53.656;10.076;2023-08-06T05:45:25;98307.09;;;-145.95;100.00
37648;BME280;23490;53.656;10.076;2023-08-06T05:47:50;98340.13;;;-145.95;100.00
37648;BME280;23490;53.656;10.076;2023-08-06T05:50:15;98356.66;;;-145.95;100.00
37648;BME280;23490;53.656;10.076;2023-08-06T05:52:41;98329.81;;;-145.95;100.00
37648;BME280;23490;53.656;10.076;2023-08-06T05:55:06;98352.53;;;-145.95;100.00
37648;BME280;23490;53.656;10.076;2023-08-06T05:57:32;98348.38;;;-145.95;100.00
37648;BME280;23490;53.656;10.076;2023-08-06T05:59:57;98340.13;;;-145.95;100.00
37648;BME280;23490;53.656;10.076;2023-08-06T06:02:23;98331.88;;;-145.95;100.00
37648;BME280;23490;53.656;10.076;2023-08-06T06:04:48;98340.13;;;-145.95;100.00
37648;BME280;23490;53.656;10.076;2023-08-06T06:07:13;98315.38;;;-145.95;100.00
37648;BME280;23490;53.656;10.076;2023-08-06T06:09:39;98315.38;;;-145.95;100.00
37648;BME280;23490;53.656;10.076;2023-08-06T06:12:05;98317.44;;;-145.95;100.00
37648;BME280;23490;53.656;10.076;2023-08-06T06:14:31;98323.63;;;-145.95;100.00
37648;BME280;23490;53.656;10.076;2023-08-06T06:16:56;98369.03;;;-145.95;100.00
37648;BME280;23490;53.656;10.076;2023-08-06T06:19:21;98302.97;;;-145.95;100.00
37648;BME280;23490;53.656;10.076;2023-08-06T06:21:47;98383.50;;;-145.95;100.00
37648;BME280;23490;53.656;10.076;2023-08-06T06:24:12;98302.97;;;-145.95;100.00
37648;BME280;23490;53.656;10.076;2023-08-06T06:26:38;98323.63;;;-145.95;100.00
37648;BME280;23490;53.656;10.076;2023-08-06T06:29:03;98311.22;;;-145.95;100.00
37648;BME280;23490;53.656;10.076;2023-08-06T06:31:28;98286.47;;;-145.95;100.00
37648;BME280;23490;53.656;10.076;2023-08-06T06:33:54;98311.22;;;-145.95;100.00
37648;BME280;23490;53.656;10.076;2023-08-06T06:36:19;98300.91;;;-145.95;100.00
37648;BME280;23490;53.656;10.076;2023-08-06T06:38:45;98302.97;;;-145.95;100.00
37648;BME280;23490;53.656;10.076;2023-08-06T06:41:10;98298.84;;;-145.95;100.00
37648;BME280;23490;53.656;10.076;2023-08-06T06:43:36;98274.06;;;-145.95;100.00
37648;BME280;23490;53.656;10.076;2023-08-06T06:46:02;98294.72;;;-145.95;100.00
37648;BME280;23490;53.656;10.076;2023-08-06T06:48:29;98298.84;;;-145.95;100.00
37648;BME280;23490;53.656;10.076;2023-08-06T06:50:55;98348.38;;;-145.95;100.00
37648;BME280;23490;53.656;10.076;2023-08-06T06:53:21;98298.84;;;-145.95;100.00
37648;BME280;23490;53.656;10.076;2023-08-06T06:55:52;98290.59;;;-145.95;100.00
37648;BME280;23490;53.656;10.076;2023-08-06T06:58:18;98290.59;;;-145.95;100.00
37648;BME280;23490;53.656;10.076;2023-08-06T07:00:43;98278.19;;;-145.95;100.00
37648;BME280;23490;53.656;10.076;2023-08-06T07:03:08;98257.56;;;-145.95;100.00
37648;BME280;23490;53.656;10.076;2023-08-06T07:05:33;98261.69;;;-145.95;100.00
37648;BME280;23490;53.656;10.076;2023-08-06T07:07:59;98265.81;;;-145.95;100.00
37648;BME280;23490;53.656;10.076;2023-08-06T07:10:25;98282.31;;;-145.95;100.00
37648;BME280;23490;53.656;10.076;2023-08-06T07:12:50;98282.31;;;-145.95;100.00
37648;BME280;23490;53.656;10.076;2023-08-06T07:15:16;98307.09;;;-145.95;100.00
37648;BME280;23490;53.656;10.076;2023-08-06T07:17:42;98261.69;;;-145.95;100.00
37648;BME280;23490;53.656;10.076;2023-08-06T07:20:08;98253.44;;;-145.95;100.00
37648;BME280;23490;53.656;10.076;2023-08-06T07:22:34;98276.13;;;-145.95;100.00
37648;BME280;23490;53.656;10.076;2023-08-06T07:24:59;98249.28;;;-145.95;100.00
37648;BME280;23490;53.656;10.076;2023-08-06T07:27:25;98216.25;;;-145.95;100.00
37648;BME280;23490;53.656;10.076;2023-08-06T07:29:50;98255.50;;;-145.95;100.00
37648;BME280;23490;53.656;10.076;2023-08-06T07:32:15;98220.38;;;-145.95;100.00
37648;BME280;23490;53.656;10.076;2023-08-06T07:34:41;98170.84;;;-145.95;100.00
37648;BME280;23490;53.656;10.076;2023-08-06T07:37:06;98193.56;;;-145.95;100.00
37648;BME280;23490;53.656;10.076;2023-08-06T07:39:31;98208.00;;;-145.95;100.00
37648;BME280;23490;53.656;10.076;2023-08-06T07:41:57;98232.78;;;-145.95;100.00
37648;BME280;23490;53.656;10.076;2023-08-06T07:44:22;98241.03;;;-145.95;100.00
37648;BME280;23490;53.656;10.076;2023-08-06T07:46:49;98195.63;;;-145.95;100.00
37648;BME280;23490;53.656;10.076;2023-08-06T07:49:14;98224.53;;;-145.95;100.00
37648;BME280;23490;53.656;10.076;2023-08-06T07:51:39;98232.78;;;-145.95;100.00
37648;BME280;23490;53.656;10.076;2023-08-06T07:54:05;98220.38;;;-145.95;100.00
37648;BME280;23490;53.656;10.076;2023-08-06T07:56:31;98224.53;;;-145.95;100.00
37648;BME280;23490;53.656;10.076;2023-08-06T07:58:56;98224.53;;;-145.95;100.00
37648;BME280;23490;53.656;10.076;2023-08-06T08:01:22;98241.03;;;-145.95;100.00
37648;BME280;23490;53.656;10.076;2023-08-06T08:03:47;98224.53;;;-145.95;100.00
37648;BME280;23490;53.656;10.076;2023-08-06T08:06:12;98187.34;;;-145.95;100.00
37648;BME280;23490;53.656;10.076;2023-08-06T08:08:38;98276.13;;;-145.95;100.00
37648;BME280;23490;53.656;10.076;2023-08-06T08:11:04;98195.63;;;-145.95;100.00
37648;BME280;23490;53.656;10.076;2023-08-06T08:13:29;98168.78;;;-145.95;100.00
37648;BME280;23490;53.656;10.076;2023-08-06T08:15:58;98195.63;;;-145.95;100.00
37648;BME280;23490;53.656;10.076;2023-08-06T08:18:24;98158.47;;;-145.95;100.00
37648;BME280;23490;53.656;10.076;2023-08-06T08:20:49;98199.75;;;-145.95;100.00
37648;BME280;23490;53.656;10.076;2023-08-06T08:23:14;98170.84;;;-145.95;100.00
37648;BME280;23490;53.656;10.076;2023-08-06T08:25:40;98216.25;;;-145.95;100.00
37648;BME280;23490;53.656;10.076;2023-08-06T08:28:05;98208.00;;;-145.95;100.00
37648;BME280;23490;53.656;10.076;2023-08-06T08:30:30;98162.59;;;-145.95;100.00
37648;BME280;23490;53.656;10.076;2023-08-06T08:32:56;98146.06;;;-145.95;100.00
37648;BME280;23490;53.656;10.076;2023-08-06T08:35:21;98183.22;;;-145.95;100.00
37648;BME280;23490;53.656;10.076;2023-08-06T08:37:46;98133.69;;;-145.95;100.00
37648;BME280;23490;53.656;10.076;2023-08-06T08:40:14;98148.13;;;-145.95;100.00
37648;BME280;23490;53.656;10.076;2023-08-06T08:42:39;98172.91;;;-145.95;100.00
37648;BME280;23490;53.656;10.076;2023-08-06T08:45:11;98152.25;;;-145.95;100.00
37648;BME280;23490;53.656;10.076;2023-08-06T08:47:38;98154.31;;;-145.95;100.00
37648;BME280;23490;53.656;10.076;2023-08-06T08:50:05;98115.09;;;-145.95;100.00
37648;BME280;23490;53.656;10.076;2023-08-06T08:52:31;98154.31;;;-145.95;100.00
37648;BME280;23490;53.656;10.076;2023-08-06T08:55:01;98113.03;;;-145.95;100.00
37648;BME280;23490;53.656;10.076;2023-08-06T08:57:26;98129.56;;;-145.95;100.00
37648;BME280;23490;53.656;10.076;2023-08-06T08:59:51;98104.78;;;-145.95;100.00
37648;BME280;23490;53.656;10.076;2023-08-06T09:02:17;98108.91;;;-145.95;100.00
37648;BME280;23490;53.656;10.076;2023-08-06T09:04:44;98069.69;;;-145.95;100.00
37648;BME280;23490;53.656;10.076;2023-08-06T09:07:13;98071.75;;;-145.95;100.00
37648;BME280;23490;53.656;10.076;2023-08-06T09:09:40;98096.53;;;-145.95;100.00
37648;BME280;23490;53.656;10.076;2023-08-06T09:12:16;98117.16;;;-145.95;100.00
37648;BME280;23490;53.656;10.076;2023-08-06T09:14:42;98137.81;;;-145.95;100.00
37648;BME280;23490;53.656;10.076;2023-08-06T09:17:08;98088.25;;;-145.95;100.00
37648;BME280;23490;53.656;10.076;2023-08-06T09:19:35;98125.44;;;-145.95;100.00
37648;BME280;23490;53.656;10.076;2023-08-06T09:22:01;98141.94;;;-145.95;100.00
37648;BME280;23490;53.656;10.076;2023-08-06T09:24:27;98156.41;;;-145.95;100.00
37648;BME280;23490;53.656;10.076;2023-08-06T09:26:53;98137.81;;;-145.95;100.00
37648;BME280;23490;53.656;10.076;2023-08-06T09:29:19;98146.06;;;-145.95;100.00
37648;BME280;23490;53.656;10.076;2023-08-06T09:31:46;98129.56;;;-145.95;100.00
37648;BME280;23490;53.656;10.076;2023-08-06T09:34:14;98183.22;;;-145.95;100.00
37648;BME280;23490;53.656;10.076;2023-08-06T09:36:48;98185.28;;;-145.95;100.00
37648;BME280;23490;53.656;10.076;2023-08-06T09:39:18;98150.19;;;-145.95;100.00
37648;BME280;23490;53.656;10.076;2023-08-06T09:41:44;98174.97;;;-145.95;100.00
37648;BME280;23490;53.656;10.076;2023-08-06T09:44:21;98146.06;;;-145.95;100.00
37648;BME280;23490;53.656;10.076;2023-08-06T09:46:55;98212.13;;;-145.95;100.00
37648;BME280;23490;53.656;10.076;2023-08-06T09:49:25;98208.00;;;-145.95;100.00
37648;BME280;23490;53.656;10.076;2023-08-06T09:51:52;98199.75;;;-145.95;100.00
37648;BME280;23490;53.656;10.076;2023-08-06T09:54:22;98212.13;;;-145.95;100.00
37648;BME280;23490;53.656;10.076;2023-08-06T09:56:48;98189.44;;;-145.95;100.00
37648;BME280;23490;53.656;10.076;2023-08-06T09:59:13;98113.03;;;-145.95;100.00
37648;BME280;23490;53.656;10.076;2023-08-06T10:01:41;98146.06;;;-145.95;100.00
37648;BME280;23490;53.656;10.076;2023-08-06T10:04:06;98220.38;;;-145.95;100.00
37648;BME280;23490;53.656;10.076;2023-08-06T10:06:37;98199.75;;;-145.95;100.00
37648;BME280;23490;53.656;10.076;2023-08-06T10:09:03;98199.75;;;-145.95;100.00
37648;BME280;23490;53.656;10.076;2023-08-06T10:11:30;98191.50;;;-145.95;100.00
37648;BME280;23490;53.656;10.076;2023-08-06T10:14:06;98131.63;;;-145.95;100.00
37648;BME280;23490;53.656;10.076;2023-08-06T10:16:34;98170.84;;;-145.95;100.00
37648;BME280;23490;53.656;10.076;2023-08-06T10:19:01;98183.22;;;-145.95;100.00
37648;BME280;23490;53.656;10.076;2023-08-06T10:21:26;98172.91;;;-145.95;100.00
37648;BME280;23490;53.656;10.076;2023-08-06T10:23:56;98164.66;;;-145.95;100.00
37648;BME280;23490;53.656;10.076;2023-08-06T10:26:25;98080.00;;;-145.95;100.00
37648;BME280;23490;53.656;10.076;2023-08-06T10:28:51;98162.59;;;-145.95;100.00
37648;BME280;23490;53.656;10.076;2023-08-06T10:31:18;98187.34;;;-145.95;100.00
37648;BME280;23490;53.656;10.076;2023-08-06T10:33:45;98183.22;;;-145.95;100.00
37648;BME280;23490;53.656;10.076;2023-08-06T10:36:12;98172.91;;;-145.95;100.00
37648;BME280;23490;53.656;10.076;2023-08-06T10:38:45;98174.97;;;-145.95;100.00
37648;BME280;23490;53.656;10.076;2023-08-06T10:41:23;98187.34;;;-145.95;100.00
37648;BME280;23490;53.656;10.076;2023-08-06T10:43:49;98191.50;;;-145.95;100.00
37648;BME280;23490;53.656;10.076;2023-08-06T10:46:27;98131.63;;;-145.95;100.00
37648;BME280;23490;53.656;10.076;2023-08-06T10:48:53;98162.59;;;-145.95;100.00
37648;BME280;23490;53.656;10.076;2023-08-06T10:51:18;98195.63;;;-145.95;100.00
37648;BME280;23490;53.656;10.076;2023-08-06T10:53:45;98146.06;;;-145.95;100.00
37648;BME280;23490;53.656;10.076;2023-08-06T10:56:17;98174.97;;;-145.95;100.00
37648;BME280;23490;53.656;10.076;2023-08-06T10:58:44;98203.88;;;-145.95;100.00
37648;BME280;23490;53.656;10.076;2023-08-06T11:01:10;98117.16;;;-145.95;100.00
37648;BME280;23490;53.656;10.076;2023-08-06T11:03:37;98164.66;;;-145.95;100.00
37648;BME280;23490;53.656;10.076;2023-08-06T11:06:02;98150.19;;;-145.95;100.00
37648;BME280;23490;53.656;10.076;2023-08-06T11:08:29;98160.53;;;-145.95;100.00
37648;BME280;23490;53.656;10.076;2023-08-06T11:10:55;98170.84;;;-145.95;100.00
37648;BME280;23490;53.656;10.076;2023-08-06T11:13:21;98121.28;;;-145.95;100.00
37648;BME280;23490;53.656;10.076;2023-08-06T11:15:46;98148.13;;;-145.95;100.00
37648;BME280;23490;53.656;10.076;2023-08-06T11:18:12;98154.31;;;-145.95;100.00
37648;BME280;23490;53.656;10.076;2023-08-06T11:20:38;98183.22;;;-145.95;100.00
37648;BME280;23490;53.656;10.076;2023-08-06T11:23:04;98203.88;;;-145.95;100.00
37648;BME280;23490;53.656;10.076;2023-08-06T11:25:30;98179.09;;;-145.95;100.00
37648;BME280;23490;53.656;10.076;2023-08-06T11:27:55;98117.16;;;-145.95;100.00
37648;BME280;23490;53.656;10.076;2023-08-06T11:30:20;98141.94;;;-145.95;100.00
37648;BME280;23490;53.656;10.076;2023-08-06T11:32:47;98102.72;;;-145.95;100.00
37648;BME280;23490;53.656;10.076;2023-08-06T11:35:13;98125.44;;;-145.95;100.00
37648;BME280;23490;53.656;10.076;2023-08-06T11:37:45;98121.28;;;-145.95;100.00
37648;BME280;23490;53.656;10.076;2023-08-06T11:40:11;98123.34;;;-145.95;100.00
37648;BME280;23490;53.656;10.076;2023-08-06T11:42:37;98139.88;;;-145.95;100.00
37648;BME280;23490;53.656;10.076;2023-08-06T11:45:03;98158.47;;;-145.95;100.00
37648;BME280;23490;53.656;10.076;2023-08-06T11:47:29;98121.28;;;-145.95;100.00
37648;BME280;23490;53.656;10.076;2023-08-06T11:49:55;98065.56;;;-145.95;100.00
37648;BME280;23490;53.656;10.076;2023-08-06T11:52:24;98115.09;;;-145.95;100.00
37648;BME280;23490;53.656;10.076;2023-08-06T11:55:03;98104.78;;;-145.95;100.00
37648;BME280;23490;53.656;10.076;2023-08-06T11:57:32;98051.09;;;-145.95;100.00
37648;BME280;23490;53.656;10.076;2023-08-06T12:00:04;98022.22;;;-145.95;100.00
37648;BME280;23490;53.656;10.076;2023-08-06T12:02:31;98028.41;;;-145.95;100.00
37648;BME280;23490;53.656;10.076;2023-08-06T12:07:37;98036.66;;;-145.95;100.00
37648;BME280;23490;53.656;10.076;2023-08-06T12:10:02;98030.47;;;-145.95;100.00
37648;BME280;23490;53.656;10.076;2023-08-06T12:12:28;97995.38;;;-145.95;100.00
37648;BME280;23490;53.656;10.076;2023-08-06T12:14:54;98011.88;;;-145.95;100.00
37648;BME280;23490;53.656;10.076;2023-08-06T12:17:19;98009.81;;;-145.95;100.00
37648;BME280;23490;53.656;10.076;2023-08-06T12:19:45;97985.03;;;-145.95;100.00
37648;BME280;23490;53.656;10.076;2023-08-06T12:22:11;97989.19;;;-145.95;100.00